Terminal Aerodrome Forecast
Issued by NWS Norman, OK

Current Version | Previous Version | Text Only | Print | Product List | Glossary Off
Versions: 1 2 3 4 5 6 7 8 9 10 11 12 13 14 15 16 17 18 19 20 21 22 23

815
FTUS44 KOUN 221722
TAFOKC
TAF
KOKC 221722Z 2218/2318 21010G16KT P6SM SKC
     FM230100 17008KT P6SM SKC
     FM231500 20012KT P6SM SKC=

USA.gov is the U.S. government's official web portal to all federal, state and local government web resources and services.